Time;durP1;ratioP1;P1;durP2;ratioP2;P2;SDS_P1;SDS_P2;PMS_P1;PMS_P2;Temp;Humidity;BMP_temperature;BMP_pressure;BME280_temperature;BME280_humidity;BME280_pressure;Samples;Min_cycle;Max_cycle;Signal;HPM_P1;HPM_P2
2021/07/03 00:02:13;;;;;;;13.77;11.07;;;19.20;99.90;;;;;;5050668;28;20958;-53
2021/07/03 00:04:41;;;;;;;13.43;10.83;;;19.20;99.90;;;;;;5050842;28;20499;-54
2021/07/03 00:07:07;;;;;;;12.93;11.60;;;19.10;99.90;;;;;;5050773;28;20442;-53
2021/07/03 00:09:36;;;;;;;13.00;11.70;;;19.10;99.90;;;;;;5051063;28;20457;-53
2021/07/03 00:12:05;;;;;;;13.07;10.50;;;19.10;99.90;;;;;;5054680;28;20449;-53
2021/07/03 00:14:32;;;;;;;16.37;12.47;;;19.00;99.90;;;;;;5036416;28;20473;-53
2021/07/03 00:16:59;;;;;;;14.40;12.73;;;19.00;99.90;;;;;;5054960;28;20454;-54
2021/07/03 00:19:26;;;;;;;14.90;12.10;;;19.00;99.90;;;;;;5036006;28;21012;-54
2021/07/03 00:21:52;;;;;;;14.23;12.07;;;19.00;99.90;;;;;;5054298;28;20464;-55
2021/07/03 00:24:19;;;;;;;13.23;11.93;;;19.00;99.90;;;;;;5055009;28;20430;-54
2021/07/03 00:26:47;;;;;;;14.37;12.50;;;18.90;99.90;;;;;;5036475;28;21069;-54
2021/07/03 00:29:14;;;;;;;13.43;12.10;;;18.90;99.90;;;;;;5054087;28;21025;-54
2021/07/03 00:31:40;;;;;;;16.23;12.67;;;18.90;99.90;;;;;;5054254;28;20436;-54
2021/07/03 00:34:07;;;;;;;13.80;12.30;;;18.90;99.90;;;;;;5054014;28;20477;-54
2021/07/03 00:36:34;;;;;;;13.40;12.10;;;18.90;99.90;;;;;;5036106;28;20448;-53
2021/07/03 00:39:00;;;;;;;16.30;12.70;;;18.90;99.90;;;;;;5035615;28;20475;-54
2021/07/03 00:41:27;;;;;;;13.07;11.87;;;18.80;99.90;;;;;;5036036;28;20476;-54
2021/07/03 00:43:56;;;;;;;14.50;12.97;;;18.80;99.90;;;;;;5036249;28;20809;-51
2021/07/03 00:46:23;;;;;;;14.30;12.90;;;18.80;99.90;;;;;;5036034;28;20508;-53
2021/07/03 00:48:50;;;;;;;14.63;12.63;;;18.90;99.90;;;;;;5053222;28;20495;-54
2021/07/03 00:51:20;;;;;;;15.37;13.73;;;18.90;99.90;;;;;;5036018;28;20449;-54
2021/07/03 00:53:47;;;;;;;18.33;14.07;;;18.90;99.90;;;;;;5035915;28;20458;-54
2021/07/03 00:56:14;;;;;;;15.90;14.33;;;18.90;99.90;;;;;;5035723;28;20508;-52
2021/07/03 00:58:41;;;;;;;15.43;13.53;;;18.80;99.90;;;;;;5035586;28;21052;-54
2021/07/03 01:01:09;;;;;;;15.93;14.30;;;18.80;99.90;;;;;;5035890;28;20453;-54
2021/07/03 01:03:36;;;;;;;17.47;14.20;;;18.80;99.90;;;;;;5036510;28;20453;-53
2021/07/03 01:06:03;;;;;;;15.83;14.23;;;18.80;99.90;;;;;;5054802;28;20442;-53
2021/07/03 01:08:30;;;;;;;16.40;14.60;;;18.70;99.90;;;;;;5036717;28;20462;-53
2021/07/03 01:10:57;;;;;;;15.27;13.30;;;18.70;99.90;;;;;;5036317;28;20453;-55
2021/07/03 01:13:27;;;;;;;15.80;14.30;;;18.70;99.90;;;;;;5054072;28;20433;-53
2021/07/03 01:15:55;;;;;;;16.47;13.90;;;18.60;99.90;;;;;;5036328;28;20998;-53
2021/07/03 01:18:24;;;;;;;14.17;12.70;;;18.60;99.90;;;;;;5053519;28;20437;-53
2021/07/03 01:20:54;;;;;;;16.33;14.63;;;18.60;99.90;;;;;;5035800;28;20485;-53
2021/07/03 01:23:24;;;;;;;16.40;14.73;;;18.60;99.90;;;;;;5036168;28;20465;-53
2021/07/03 01:25:58;;;;;;;18.03;15.60;;;18.60;99.90;;;;;;5035993;28;20661;-54
2021/07/03 01:28:28;;;;;;;20.23;14.50;;;18.50;99.90;;;;;;5035478;28;20453;-53
2021/07/03 01:30:56;;;;;;;21.57;15.93;;;18.30;99.90;;;;;;5035642;28;20499;-53
2021/07/03 01:33:23;;;;;;;16.43;14.80;;;18.50;99.90;;;;;;5053354;28;20458;-54
2021/07/03 01:35:52;;;;;;;19.53;15.50;;;18.30;99.90;;;;;;5053861;28;20826;-53
2021/07/03 01:38:26;;;;;;;17.17;14.30;;;18.20;99.90;;;;;;5035326;28;21015;-54
2021/07/03 01:41:03;;;;;;;19.47;15.83;;;18.40;99.90;;;;;;5053532;28;20441;-54
2021/07/03 01:43:39;;;;;;;15.27;13.73;;;18.30;99.90;;;;;;5035590;28;20457;-53
2021/07/03 01:46:08;;;;;;;16.20;14.60;;;18.30;99.90;;;;;;5053470;28;20433;-54
2021/07/03 01:48:36;;;;;;;18.90;15.43;;;18.30;99.90;;;;;;5053030;28;20441;-54
2021/07/03 01:51:11;;;;;;;16.80;15.00;;;18.10;99.90;;;;;;5035250;28;20463;-54
2021/07/03 01:53:40;;;;;;;21.43;16.77;;;18.20;99.90;;;;;;5035236;28;20441;-54
2021/07/03 01:56:08;;;;;;;18.57;16.63;;;18.00;99.90;;;;;;5034961;28;20537;-53
2021/07/03 01:58:35;;;;;;;18.20;16.10;;;18.20;99.90;;;;;;5052762;28;20472;-53
2021/07/03 02:01:25;;;;;;;21.40;16.53;;;18.00;99.90;;;;;;5039599;28;20792;-54
2021/07/03 02:03:52;;;;;;;16.07;14.40;;;18.10;99.90;;;;;;5053073;28;20429;-53
2021/07/03 02:06:28;;;;;;;16.90;15.20;;;18.20;99.90;;;;;;5035107;28;20467;-53
2021/07/03 02:08:57;;;;;;;19.10;17.10;;;18.10;99.90;;;;;;5052494;28;20453;-53
2021/07/03 02:11:24;;;;;;;17.73;15.40;;;18.10;99.90;;;;;;5034951;28;20528;-53
2021/07/03 02:13:58;;;;;;;18.00;15.00;;;18.10;99.90;;;;;;5052276;28;20468;-54
2021/07/03 02:16:32;;;;;;;19.00;16.30;;;18.10;99.90;;;;;;5033723;28;20515;-54
2021/07/03 02:19:00;;;;;;;17.77;15.87;;;18.10;99.90;;;;;;5034257;28;20473;-53
2021/07/03 02:21:32;;;;;;;22.83;20.30;;;18.10;99.90;;;;;;5034920;28;20954;-53
2021/07/03 02:24:01;;;;;;;19.47;15.73;;;18.00;99.90;;;;;;5034764;28;20507;-53
2021/07/03 02:26:28;;;;;;;18.63;15.83;;;18.00;99.90;;;;;;5034507;28;20505;-53
2021/07/03 02:28:55;;;;;;;18.60;16.70;;;18.00;99.90;;;;;;5052190;28;20976;-54
2021/07/03 02:31:27;;;;;;;18.47;16.50;;;17.90;99.90;;;;;;5052529;28;20429;-54
2021/07/03 02:34:00;;;;;;;18.00;16.23;;;17.90;99.90;;;;;;5052009;28;20793;-63
2021/07/03 02:36:27;;;;;;;22.43;16.50;;;17.90;99.90;;;;;;5052811;28;20528;-54
2021/07/03 02:38:54;;;;;;;21.50;16.03;;;17.80;99.90;;;;;;5052175;28;20450;-53
2021/07/03 02:41:31;;;;;;;21.17;17.90;;;17.90;99.90;;;;;;5051332;28;20539;-54
2021/07/03 02:44:00;;;;;;;20.20;17.97;;;17.70;99.90;;;;;;5034274;28;20438;-53
2021/07/03 02:46:28;;;;;;;18.90;16.47;;;17.80;99.90;;;;;;5034001;28;20540;-54
2021/07/03 02:48:55;;;;;;;17.87;16.07;;;17.80;99.90;;;;;;5051254;28;20475;-53
2021/07/03 02:51:23;;;;;;;19.07;17.07;;;17.80;99.90;;;;;;5033794;28;20464;-54
2021/07/03 02:53:50;;;;;;;21.10;17.40;;;17.80;99.90;;;;;;5051557;28;20435;-54
2021/07/03 02:56:17;;;;;;;21.50;19.30;;;17.80;99.90;;;;;;5033790;28;20484;-54
2021/07/03 02:58:45;;;;;;;20.47;18.07;;;17.70;99.90;;;;;;5033173;28;20793;-54
2021/07/03 03:01:13;;;;;;;23.10;16.93;;;17.70;99.90;;;;;;5033510;28;20547;-54
2021/07/03 03:03:42;;;;;;;18.20;16.50;;;17.60;99.90;;;;;;5033737;28;20527;-54
2021/07/03 03:06:11;;;;;;;20.07;17.77;;;17.70;99.90;;;;;;5033338;28;20452;-54
2021/07/03 03:08:39;;;;;;;19.30;16.70;;;17.70;99.90;;;;;;5049587;28;21001;-54
2021/07/03 03:11:08;;;;;;;19.70;17.50;;;17.70;99.90;;;;;;5033368;28;20455;-54
2021/07/03 03:13:37;;;;;;;21.77;17.13;;;17.70;99.90;;;;;;5033353;28;20555;-54
2021/07/03 03:16:06;;;;;;;18.50;16.50;;;17.60;99.90;;;;;;5033230;28;20480;-54
2021/07/03 03:18:33;;;;;;;18.67;16.93;;;17.70;99.90;;;;;;5032939;28;20477;-54
2021/07/03 03:21:00;;;;;;;20.77;16.97;;;17.70;99.90;;;;;;5033332;28;20507;-53
2021/07/03 03:23:26;;;;;;;19.80;17.70;;;17.60;99.90;;;;;;5033180;28;20456;-54
2021/07/03 03:25:53;;;;;;;21.20;18.30;;;17.70;99.90;;;;;;5033081;28;20521;-53
2021/07/03 03:28:22;;;;;;;20.50;17.50;;;17.70;99.90;;;;;;5050952;28;20585;-53
2021/07/03 03:30:51;;;;;;;19.30;17.30;;;17.60;99.90;;;;;;5049504;28;20499;-53
2021/07/03 03:33:25;;;;;;;18.40;16.73;;;17.60;99.90;;;;;;5033144;28;20472;-53
2021/07/03 03:35:52;;;;;;;22.13;18.87;;;17.70;99.90;;;;;;5050942;28;20465;-53
2021/07/03 03:38:19;;;;;;;20.87;18.87;;;17.50;99.90;;;;;;5050577;28;21027;-53
2021/07/03 03:40:46;;;;;;;20.40;18.23;;;17.70;99.90;;;;;;5050893;28;20555;-54
2021/07/03 03:43:16;;;;;;;23.80;17.67;;;17.70;99.90;;;;;;5033049;28;20451;-55
2021/07/03 03:45:45;;;;;;;19.80;17.70;;;17.70;99.90;;;;;;5035740;28;20544;-55
2021/07/03 03:48:12;;;;;;;21.70;18.70;;;17.70;99.90;;;;;;5054976;28;20454;-55
2021/07/03 03:50:45;;;;;;;21.57;18.67;;;17.70;99.90;;;;;;5036819;28;20486;-55
2021/07/03 03:53:12;;;;;;;19.80;17.77;;;17.70;99.90;;;;;;5037017;28;20452;-55
2021/07/03 03:55:39;;;;;;;21.30;18.30;;;17.80;99.90;;;;;;5054963;28;20535;-55
2021/07/03 03:58:08;;;;;;;21.43;19.03;;;17.80;99.90;;;;;;5036660;28;20539;-55
2021/07/03 04:00:36;;;;;;;21.73;17.90;;;17.80;99.90;;;;;;5036935;28;20476;-55
2021/07/03 04:03:04;;;;;;;20.90;17.33;;;17.80;99.90;;;;;;5036730;28;20452;-55
2021/07/03 04:05:37;;;;;;;19.13;17.07;;;17.90;99.90;;;;;;5036654;28;20447;-55
2021/07/03 04:08:06;;;;;;;22.30;17.90;;;17.90;99.90;;;;;;5036564;28;20456;-55
2021/07/03 04:10:33;;;;;;;19.93;16.90;;;18.00;99.90;;;;;;5053133;28;20483;-55
2021/07/03 04:12:59;;;;;;;19.73;17.17;;;18.00;99.90;;;;;;5054401;28;20446;-55
2021/07/03 04:15:26;;;;;;;20.77;18.57;;;18.10;99.90;;;;;;5036381;28;20539;-55
2021/07/03 04:17:53;;;;;;;24.70;20.17;;;18.20;99.90;;;;;;5054344;28;20527;-54
2021/07/03 04:20:19;;;;;;;20.73;18.53;;;18.30;99.90;;;;;;5054049;28;20547;-54
2021/07/03 04:22:46;;;;;;;19.63;16.50;;;18.40;99.90;;;;;;5054532;28;20429;-55
2021/07/03 04:25:16;;;;;;;19.50;17.57;;;18.50;99.90;;;;;;5054328;28;21004;-56
2021/07/03 04:27:43;;;;;;;19.73;17.17;;;18.60;99.90;;;;;;5054406;28;20446;-54
2021/07/03 04:30:11;;;;;;;19.67;17.63;;;18.50;99.90;;;;;;5053910;28;20467;-54
2021/07/03 04:32:42;;;;;;;19.80;17.20;;;18.80;99.90;;;;;;5054228;28;20520;-55
2021/07/03 04:35:11;;;;;;;19.87;17.80;;;18.80;99.90;;;;;;5054062;28;21043;-55
2021/07/03 04:37:38;;;;;;;20.37;18.07;;;19.00;99.90;;;;;;5053924;28;20469;-55
2021/07/03 04:40:07;;;;;;;19.53;17.43;;;19.10;99.90;;;;;;5053826;28;20457;-54
2021/07/03 04:42:35;;;;;;;19.33;17.10;;;19.20;99.90;;;;;;5054054;28;20437;-54
2021/07/03 04:45:03;;;;;;;21.03;18.37;;;19.30;99.90;;;;;;5053817;28;20528;-53
2021/07/03 04:47:33;;;;;;;18.60;16.60;;;19.40;99.90;;;;;;5036003;28;20496;-54
2021/07/03 04:49:59;;;;;;;19.10;16.90;;;19.50;99.90;;;;;;5094428;22;20483;-53
2021/07/03 04:52:26;;;;;;;18.70;16.70;;;19.60;99.90;;;;;;5093954;28;20438;-55
2021/07/03 04:54:53;;;;;;;21.53;17.50;;;19.60;99.90;;;;;;5093818;28;20557;-55
2021/07/03 04:57:20;;;;;;;19.17;17.27;;;19.80;99.90;;;;;;5093449;28;20944;-55
2021/07/03 04:59:48;;;;;;;19.47;17.43;;;19.90;99.90;;;;;;5093039;28;20496;-55
2021/07/03 05:02:15;;;;;;;20.07;18.07;;;19.90;99.90;;;;;;5091969;28;20461;-55
2021/07/03 05:04:42;;;;;;;21.20;16.50;;;20.10;99.90;;;;;;5091972;28;20526;-55
2021/07/03 05:07:09;;;;;;;19.37;17.50;;;20.20;99.90;;;;;;5093001;28;20801;-55
2021/07/03 05:09:43;;;;;;;18.53;16.67;;;20.20;99.90;;;;;;5090934;28;20566;-54
2021/07/03 05:12:10;;;;;;;19.93;16.53;;;20.30;99.90;;;;;;5092803;28;20429;-53
2021/07/03 05:14:37;;;;;;;18.43;15.90;;;20.30;99.90;;;;;;5093075;28;20407;-53
2021/07/03 05:17:05;;;;;;;18.80;15.90;;;20.30;99.90;;;;;;5092801;28;20479;-52
2021/07/03 05:19:31;;;;;;;17.10;15.40;;;20.40;99.90;;;;;;5092671;28;20445;-53
2021/07/03 05:21:58;;;;;;;19.20;16.80;;;20.20;99.90;;;;;;5093107;28;20429;-53
2021/07/03 05:24:25;;;;;;;18.23;16.33;;;20.30;99.90;;;;;;5092381;28;20452;-53
2021/07/03 05:26:52;;;;;;;18.50;16.50;;;20.30;99.90;;;;;;5092425;28;20432;-56
2021/07/03 05:29:18;;;;;;;19.00;16.97;;;20.20;99.90;;;;;;5092062;28;20454;-55
2021/07/03 05:31:45;;;;;;;20.17;15.57;;;20.20;99.90;;;;;;5092518;28;20428;-53
2021/07/03 05:34:13;;;;;;;17.27;15.57;;;20.20;99.90;;;;;;5092755;28;20465;-52
2021/07/03 05:36:40;;;;;;;18.20;16.30;;;20.20;99.90;;;;;;5092446;28;20469;-55
2021/07/03 05:39:06;;;;;;;17.90;16.13;;;20.20;99.90;;;;;;5092005;28;20425;-54
2021/07/03 05:41:36;;;;;;;26.13;18.20;;;20.10;99.90;;;;;;5092432;28;20447;-55
2021/07/03 05:44:03;;;;;;;17.67;15.87;;;20.00;99.90;;;;;;5092876;28;20528;-54
2021/07/03 05:46:30;;;;;;;19.73;17.30;;;20.10;99.90;;;;;;5092501;28;20935;-54
2021/07/03 05:48:57;;;;;;;18.40;16.50;;;20.20;99.90;;;;;;5092247;28;20918;-54
2021/07/03 05:51:27;;;;;;;17.30;13.87;;;20.30;99.90;;;;;;5092265;28;20858;-55
2021/07/03 05:53:54;;;;;;;18.23;16.33;;;20.50;99.90;;;;;;5092324;28;20809;-54
2021/07/03 05:56:21;;;;;;;17.53;15.00;;;20.60;99.90;;;;;;5092204;28;20477;-54
2021/07/03 05:58:48;;;;;;;18.27;16.30;;;20.80;99.90;;;;;;5091643;28;20425;-54
2021/07/03 06:01:15;;;;;;;15.83;14.17;;;20.90;99.90;;;;;;5091909;28;20788;-54
2021/07/03 06:03:41;;;;;;;14.37;12.87;;;21.10;99.90;;;;;;5091864;28;20583;-54
2021/07/03 06:06:08;;;;;;;15.70;13.17;;;21.20;99.90;;;;;;5091834;28;20429;-53
2021/07/03 06:08:37;;;;;;;14.20;12.70;;;21.30;99.90;;;;;;5090771;28;20441;-53
2021/07/03 06:11:03;;;;;;;14.03;12.50;;;21.30;99.90;;;;;;5091721;28;20472;-52
2021/07/03 06:13:30;;;;;;;12.27;11.07;;;21.50;99.90;;;;;;5091868;28;20435;-53
2021/07/03 06:15:57;;;;;;;15.20;13.60;;;21.50;99.90;;;;;;5091851;28;20512;-53
2021/07/03 06:18:25;;;;;;;12.70;11.50;;;21.50;99.90;;;;;;5091480;28;20427;-53
2021/07/03 06:20:52;;;;;;;14.50;12.97;;;21.50;99.90;;;;;;5091446;28;20447;-53
2021/07/03 06:23:19;;;;;;;13.63;12.33;;;21.60;99.90;;;;;;5091511;28;20430;-53
2021/07/03 06:25:47;;;;;;;15.90;12.90;;;21.70;99.90;;;;;;5091416;28;20462;-53
2021/07/03 06:28:13;;;;;;;12.37;11.10;;;21.70;99.90;;;;;;5090972;28;20432;-53
2021/07/03 06:30:40;;;;;;;14.07;12.53;;;21.80;99.90;;;;;;5091313;28;20460;-54
2021/07/03 06:33:07;;;;;;;14.13;12.83;;;21.80;99.90;;;;;;5091577;28;20442;-53
2021/07/03 06:35:34;;;;;;;15.70;11.20;;;21.70;99.90;;;;;;5091575;28;20909;-53
2021/07/03 06:38:00;;;;;;;12.03;10.50;;;21.60;99.90;;;;;;5091326;28;20811;-54
2021/07/03 06:40:27;;;;;;;11.30;10.20;;;21.80;99.90;;;;;;5091229;28;21047;-53
2021/07/03 06:42:55;;;;;;;14.30;10.50;;;21.80;99.90;;;;;;5091148;28;20924;-53
2021/07/03 06:45:21;;;;;;;12.87;11.07;;;21.90;99.90;;;;;;5091154;28;20432;-53
2021/07/03 06:47:48;;;;;;;12.83;10.77;;;22.00;99.90;;;;;;5091004;28;21135;-53
2021/07/03 06:50:15;;;;;;;11.37;9.70;;;21.80;99.90;;;;;;5090288;28;20474;-53
2021/07/03 06:52:42;;;;;;;12.60;11.00;;;22.10;99.90;;;;;;5090975;28;20431;-53
2021/07/03 06:55:09;;;;;;;11.83;10.63;;;22.10;99.90;;;;;;5090931;28;20544;-53
2021/07/03 06:57:35;;;;;;;10.70;9.67;;;22.10;99.90;;;;;;5090950;28;20571;-53
2021/07/03 07:00:04;;;;;;;15.00;9.87;;;22.20;99.90;;;;;;5090243;28;20461;-53
2021/07/03 07:02:31;;;;;;;12.80;11.10;;;22.20;99.90;;;;;;5090484;28;20433;-53
2021/07/03 07:04:57;;;;;;;14.83;10.80;;;22.20;99.90;;;;;;5088865;28;20530;-53
2021/07/03 07:07:24;;;;;;;14.73;9.63;;;22.30;99.90;;;;;;5090717;28;20948;-53
2021/07/03 07:09:51;;;;;;;10.20;9.20;;;22.20;99.90;;;;;;5090313;28;20456;-53
2021/07/03 07:12:17;;;;;;;12.20;10.70;;;22.20;99.90;;;;;;5089212;28;20451;-53
2021/07/03 07:14:44;;;;;;;10.63;9.63;;;22.50;99.90;;;;;;5090668;28;20532;-53
2021/07/03 07:17:12;;;;;;;11.97;10.77;;;22.30;99.90;;;;;;5090437;28;20558;-53
2021/07/03 07:19:39;;;;;;;11.33;10.23;;;22.50;99.90;;;;;;5089835;28;20466;-54
2021/07/03 07:22:06;;;;;;;16.13;10.37;;;22.50;99.90;;;;;;5090643;28;20433;-53
2021/07/03 07:24:32;;;;;;;10.60;9.50;;;22.60;99.90;;;;;;5090694;28;20451;-53
2021/07/03 07:26:59;;;;;;;12.50;10.43;;;22.60;99.90;;;;;;5090391;28;20498;-53
2021/07/03 07:29:26;;;;;;;10.83;9.70;;;22.60;99.90;;;;;;5089884;28;20452;-53
2021/07/03 07:31:52;;;;;;;13.73;11.30;;;22.60;99.90;;;;;;5090866;28;20901;-53
2021/07/03 07:34:20;;;;;;;13.57;10.47;;;22.50;99.90;;;;;;5090179;28;20466;-53
2021/07/03 07:36:47;;;;;;;11.77;10.70;;;22.50;99.90;;;;;;5090404;28;20478;-53
2021/07/03 07:39:14;;;;;;;17.43;11.60;;;22.50;99.90;;;;;;5089847;28;20804;-54
2021/07/03 07:41:40;;;;;;;12.57;11.30;;;22.60;99.90;;;;;;5090141;28;20446;-53
2021/07/03 07:44:07;;;;;;;13.33;11.73;;;22.60;99.90;;;;;;5089901;28;20458;-53
2021/07/03 07:46:34;;;;;;;14.07;12.50;;;22.80;99.90;;;;;;5090257;28;20439;-53
2021/07/03 07:49:00;;;;;;;13.80;12.27;;;22.80;99.80;;;;;;5089305;28;20944;-54
2021/07/03 07:51:28;;;;;;;12.87;11.67;;;22.80;99.80;;;;;;5090269;28;20438;-54
2021/07/03 07:53:55;;;;;;;14.97;12.33;;;22.90;99.80;;;;;;5090062;28;20518;-53
2021/07/03 07:56:21;;;;;;;13.23;11.93;;;22.90;99.70;;;;;;5089836;28;21063;-53
2021/07/03 07:58:48;;;;;;;12.97;11.00;;;23.00;99.60;;;;;;5089528;28;20429;-54
2021/07/03 08:01:15;;;;;;;13.60;12.30;;;23.10;99.50;;;;;;5089894;28;20903;-53
2021/07/03 08:03:42;;;;;;;12.83;11.47;;;23.10;99.20;;;;;;5089817;28;20425;-54
2021/07/03 08:06:09;;;;;;;11.87;10.73;;;23.10;99.00;;;;;;5089987;28;20430;-53
2021/07/03 08:08:37;;;;;;;13.37;12.03;;;23.20;98.80;;;;;;5089393;28;20539;-53
2021/07/03 08:11:05;;;;;;;13.40;12.20;;;23.30;98.80;;;;;;5089606;28;20919;-54
2021/07/03 08:13:31;;;;;;;13.63;12.20;;;23.30;98.60;;;;;;5089910;28;20438;-54
2021/07/03 08:15:58;;;;;;;17.30;13.17;;;23.40;98.60;;;;;;5090290;28;20796;-54
2021/07/03 08:18:25;;;;;;;15.63;13.07;;;23.50;98.50;;;;;;5089329;28;20519;-53
2021/07/03 08:20:53;;;;;;;15.27;10.97;;;23.50;98.20;;;;;;5089199;28;20562;-53
2021/07/03 08:23:19;;;;;;;13.13;11.90;;;23.50;98.20;;;;;;5089875;28;20444;-54
2021/07/03 08:25:48;;;;;;;13.63;12.20;;;23.50;97.90;;;;;;5089710;28;20942;-53
2021/07/03 08:28:15;;;;;;;14.77;13.27;;;23.60;97.90;;;;;;5087258;28;20775;-54
2021/07/03 08:30:42;;;;;;;13.40;10.70;;;23.60;97.80;;;;;;5090758;28;20815;-53
2021/07/03 08:33:08;;;;;;;12.83;11.53;;;23.70;97.70;;;;;;5093191;28;20442;-54
2021/07/03 08:35:35;;;;;;;14.63;12.77;;;23.70;97.40;;;;;;5093472;28;20486;-54
2021/07/03 08:38:02;;;;;;;12.47;10.87;;;23.80;97.30;;;;;;5093168;28;20518;-55
2021/07/03 08:40:31;;;;;;;12.70;11.43;;;23.70;97.00;;;;;;5093211;28;20469;-54
2021/07/03 08:42:59;;;;;;;12.90;9.50;;;23.80;96.90;;;;;;5093204;28;20428;-54
2021/07/03 08:45:26;;;;;;;11.23;10.17;;;23.90;96.80;;;;;;5093115;28;20423;-55
2021/07/03 08:47:53;;;;;;;11.17;10.07;;;23.90;96.60;;;;;;5093373;28;20432;-54
2021/07/03 08:50:20;;;;;;;12.47;10.10;;;24.00;96.40;;;;;;5091229;28;20899;-54
2021/07/03 08:52:47;;;;;;;12.47;11.17;;;24.00;96.20;;;;;;5093065;28;21000;-54
2021/07/03 08:55:17;;;;;;;12.07;10.30;;;24.10;96.00;;;;;;5093223;28;20430;-56
2021/07/03 08:57:46;;;;;;;12.87;11.70;;;24.10;95.80;;;;;;5093247;28;20562;-56
2021/07/03 09:00:16;;;;;;;11.50;10.40;;;23.90;95.60;;;;;;5092506;28;20450;-54
2021/07/03 09:02:44;;;;;;;16.40;11.90;;;24.10;95.70;;;;;;5093110;28;20553;-54
2021/07/03 09:05:26;;;;;;;11.63;10.50;;;24.10;95.40;;;;;;5092865;28;20956;-54
2021/07/03 09:08:01;;;;;;;11.70;10.60;;;24.20;95.20;;;;;;5092576;28;20428;-55
2021/07/03 09:10:28;;;;;;;12.30;10.37;;;24.10;95.10;;;;;;5092569;28;20759;-54
2021/07/03 09:12:58;;;;;;;16.67;10.63;;;24.10;95.20;;;;;;5092656;28;20940;-55
2021/07/03 09:15:28;;;;;;;12.20;10.60;;;24.30;95.30;;;;;;5092958;28;20450;-55
2021/07/03 09:17:56;;;;;;;10.23;9.33;;;24.30;95.20;;;;;;5092414;28;20514;-55
2021/07/03 09:20:25;;;;;;;13.87;10.00;;;24.40;94.60;;;;;;5092498;28;20448;-55
2021/07/03 09:22:52;;;;;;;11.50;9.47;;;24.50;94.40;;;;;;5092476;28;20890;-55
2021/07/03 09:25:20;;;;;;;10.13;9.03;;;24.50;94.00;;;;;;5092356;28;20502;-55
2021/07/03 09:27:47;;;;;;;12.33;9.63;;;24.60;94.00;;;;;;5092637;28;20418;-55
2021/07/03 09:30:19;;;;;;;10.90;9.80;;;24.50;93.90;;;;;;5091581;28;20767;-55
2021/07/03 09:32:51;;;;;;;11.13;10.03;;;24.50;93.70;;;;;;5091922;28;20467;-55
2021/07/03 09:35:18;;;;;;;9.97;9.07;;;24.40;93.40;;;;;;5092213;28;20535;-55
2021/07/03 09:37:45;;;;;;;11.47;9.40;;;24.30;93.50;;;;;;5092118;28;20476;-55
2021/07/03 09:40:12;;;;;;;10.10;9.20;;;24.40;93.70;;;;;;5091812;28;20530;-55
2021/07/03 09:42:41;;;;;;;10.33;9.30;;;24.40;93.50;;;;;;5092109;28;20531;-55
2021/07/03 09:45:09;;;;;;;10.80;9.80;;;24.50;93.60;;;;;;5090473;28;20451;-55
2021/07/03 09:47:36;;;;;;;9.90;8.77;;;24.50;93.30;;;;;;5090480;28;20448;-55
2021/07/03 09:50:07;;;;;;;9.30;8.50;;;24.50;92.70;;;;;;5091697;28;20470;-55
2021/07/03 09:52:34;;;;;;;10.93;8.60;;;24.50;92.70;;;;;;5091770;28;20440;-54
2021/07/03 09:55:01;;;;;;;10.50;8.93;;;24.50;92.70;;;;;;5090235;28;20944;-55
2021/07/03 09:57:29;;;;;;;10.33;9.43;;;24.40;92.90;;;;;;5091513;28;20467;-55
2021/07/03 09:59:55;;;;;;;10.00;9.10;;;24.50;93.10;;;;;;5090943;28;20454;-55
2021/07/03 10:02:22;;;;;;;10.40;9.27;;;24.50;93.10;;;;;;5091796;28;20736;-55
2021/07/03 10:04:49;;;;;;;13.47;9.80;;;24.60;93.00;;;;;;5091599;28;20516;-55
2021/07/03 10:07:22;;;;;;;8.70;7.90;;;24.60;92.40;;;;;;5091316;28;20536;-55
2021/07/03 10:09:52;;;;;;;9.63;8.13;;;24.70;91.60;;;;;;5091221;28;20460;-55
2021/07/03 10:12:25;;;;;;;8.13;7.30;;;24.80;91.50;;;;;;5089958;28;20804;-55
2021/07/03 10:14:52;;;;;;;10.83;8.20;;;24.90;91.20;;;;;;5091780;28;20435;-55
2021/07/03 10:17:23;;;;;;;9.47;8.50;;;25.00;91.10;;;;;;5091395;28;20479;-55
2021/07/03 10:19:50;;;;;;;9.77;8.10;;;25.10;90.50;;;;;;5090717;28;20449;-55
2021/07/03 10:22:20;;;;;;;13.63;7.67;;;25.20;90.30;;;;;;5091393;28;20569;-55
2021/07/03 10:24:50;;;;;;;8.00;7.30;;;25.30;90.10;;;;;;5091007;28;20429;-55
2021/07/03 10:27:19;;;;;;;8.43;7.50;;;25.20;89.20;;;;;;5091101;28;20498;-55
2021/07/03 10:29:47;;;;;;;8.30;7.50;;;25.30;89.40;;;;;;5090860;28;20452;-55
2021/07/03 10:32:27;;;;;;;7.77;7.00;;;25.30;88.80;;;;;;5091041;28;20532;-55
2021/07/03 10:34:54;;;;;;;7.00;6.40;;;25.30;85.30;;;;;;5090783;28;20433;-55
2021/07/03 10:37:32;;;;;;;8.27;7.47;;;25.20;85.50;;;;;;5090534;28;20560;-55
2021/07/03 10:39:59;;;;;;;8.80;8.00;;;25.30;85.50;;;;;;5090728;28;20552;-55
2021/07/03 10:42:41;;;;;;;8.30;6.20;;;25.30;85.40;;;;;;5090809;28;20738;-56
2021/07/03 10:45:10;;;;;;;10.67;7.07;;;25.40;84.80;;;;;;5090975;28;20794;-55
2021/07/03 10:47:37;;;;;;;9.73;6.47;;;25.50;84.00;;;;;;5090563;28;20548;-55
2021/07/03 10:50:18;;;;;;;11.23;8.63;;;25.40;83.30;;;;;;5091112;28;20478;-56
2021/07/03 10:52:46;;;;;;;11.40;7.43;;;25.40;83.40;;;;;;5090631;28;20544;-56
2021/07/03 10:55:13;;;;;;;7.87;7.10;;;25.40;84.00;;;;;;5090218;28;20441;-55
2021/07/03 10:57:42;;;;;;;8.87;8.07;;;25.40;83.60;;;;;;5090476;28;20468;-56
2021/07/03 11:00:11;;;;;;;7.40;6.80;;;25.40;83.60;;;;;;5090061;28;20480;-56
2021/07/03 11:02:38;;;;;;;9.10;7.17;;;25.40;83.60;;;;;;5090490;28;20441;-56
2021/07/03 11:05:12;;;;;;;15.67;14.10;;;25.20;83.50;;;;;;5090444;28;20435;-56
2021/07/03 11:07:39;;;;;;;8.77;8.07;;;25.30;83.30;;;;;;5088639;28;20476;-56
2021/07/03 11:10:09;;;;;;;10.93;8.37;;;25.20;83.30;;;;;;5090274;28;20762;-56
2021/07/03 11:12:50;;;;;;;9.47;8.57;;;25.40;83.10;;;;;;5090107;28;20433;-56
2021/07/03 11:15:18;;;;;;;8.97;8.07;;;25.40;83.30;;;;;;5090064;28;20919;-56
2021/07/03 11:17:45;;;;;;;8.30;7.50;;;25.40;83.30;;;;;;5090263;28;20893;-56
2021/07/03 11:20:23;;;;;;;10.30;7.67;;;25.30;83.10;;;;;;5089718;28;21015;-55
2021/07/03 11:22:50;;;;;;;8.67;7.87;;;25.40;82.50;;;;;;5090433;28;20428;-55
2021/07/03 11:25:27;;;;;;;8.37;7.20;;;25.20;82.60;;;;;;5090050;28;20527;-56
2021/07/03 11:27:54;;;;;;;6.80;6.20;;;25.30;82.10;;;;;;5089279;28;20770;-56
2021/07/03 11:30:23;;;;;;;8.80;7.90;;;25.40;81.30;;;;;;5090492;28;20456;-55
2021/07/03 11:32:51;;;;;;;8.43;7.37;;;25.50;80.30;;;;;;5090475;28;20437;-56
2021/07/03 11:35:18;;;;;;;9.80;8.87;;;25.50;80.50;;;;;;5089432;28;20437;-56
2021/07/03 11:37:44;;;;;;;8.20;7.40;;;25.40;80.60;;;;;;5089875;28;20468;-56
2021/07/03 11:40:13;;;;;;;7.50;6.77;;;25.20;81.10;;;;;;5090036;28;20447;-56
2021/07/03 11:42:44;;;;;;;8.33;7.53;;;25.30;81.10;;;;;;5089382;28;20527;-56
2021/07/03 11:45:14;;;;;;;8.20;7.47;;;25.30;81.10;;;;;;5089965;28;20898;-56
2021/07/03 11:47:42;;;;;;;8.27;7.47;;;25.30;81.40;;;;;;5089574;28;20529;-56
2021/07/03 11:50:13;;;;;;;8.23;7.33;;;25.20;81.10;;;;;;5089546;28;20484;-56
2021/07/03 11:52:47;;;;;;;8.23;7.47;;;25.40;80.60;;;;;;5089564;28;20429;-55
2021/07/03 11:55:16;;;;;;;8.93;7.70;;;25.40;80.90;;;;;;5089072;28;20428;-55
2021/07/03 11:57:46;;;;;;;6.07;5.47;;;25.50;80.90;;;;;;5087768;28;20953;-55
2021/07/03 12:00:15;;;;;;;6.47;5.80;;;25.80;80.30;;;;;;5089244;28;20502;-55
2021/07/03 12:02:42;;;;;;;7.50;6.80;;;25.90;79.80;;;;;;5089595;28;20428;-55
2021/07/03 12:05:10;;;;;;;7.67;6.87;;;26.10;78.80;;;;;;5089729;28;20454;-55
2021/07/03 12:07:37;;;;;;;7.40;6.70;;;26.10;76.80;;;;;;5093415;28;21004;-55
2021/07/03 12:10:06;;;;;;;8.30;6.03;;;26.00;75.50;;;;;;5093825;28;20445;-55
2021/07/03 12:12:32;;;;;;;7.67;6.70;;;26.20;75.00;;;;;;5093447;28;20433;-55
2021/07/03 12:15:02;;;;;;;7.43;5.93;;;26.10;74.70;;;;;;5093366;28;20950;-55
2021/07/03 12:17:29;;;;;;;6.27;5.57;;;26.30;75.20;;;;;;5093619;28;20468;-55
2021/07/03 12:20:07;;;;;;;13.00;7.47;;;26.30;75.00;;;;;;5093301;28;20954;-55
2021/07/03 12:22:33;;;;;;;8.80;7.37;;;26.30;75.10;;;;;;5093401;28;20766;-55
2021/07/03 12:25:14;;;;;;;7.57;6.80;;;26.30;75.40;;;;;;5093486;28;20955;-55
2021/07/03 12:27:41;;;;;;;7.90;7.10;;;26.30;75.00;;;;;;5093147;28;20421;-55
2021/07/03 12:30:10;;;;;;;7.43;6.70;;;26.20;75.10;;;;;;5093183;28;20448;-55
2021/07/03 12:32:36;;;;;;;8.40;6.67;;;26.30;74.30;;;;;;5093193;28;20441;-55
2021/07/03 12:35:11;;;;;;;7.07;6.47;;;26.40;73.40;;;;;;5093591;28;20424;-55
2021/07/03 12:37:37;;;;;;;7.20;6.30;;;26.40;71.90;;;;;;5093382;28;20468;-55